LRSV - SUCEAVA/STEFAN CEL MARE - SUCEAVA

Compiled: 11:33:36 on 21/04/2018

Latest METAR/SPECI Reports

METAR LRSV 211130Z 27007KT 230V320 CAVOK 23/00 Q1016=

Previous reports

METAR LRSV 211100Z 28006KT 240V330 CAVOK 22/03 Q1017=
METAR LRSV 211030Z 27007KT 220V310 CAVOK 21/M01 Q1017=
METAR LRSV 211000Z 28006KT CAVOK 20/02 Q1018=
METAR LRSV 210930Z 23006KT 180V270 CAVOK 19/01 Q1018=

Latest TAF report

TAF LRSV 211100Z 2112/2121 28008KT CAVOK=

Valid WARNINGS

No valid warnings for LRSV